Artondale, Washington
Current Conditions -  °F | °C
As of 8:53 PM on Friday 24 Oct 2014 (Local Time) from KTIW Reporting Station
Light Rain Light Rain  
Wind Chill: 51°   Ceiling: 5500
Heat Index: 51°   Visibility: 6mi
Dew Point: 48°   Wind: 8mph
Humidity: 89%   Direction: 360°N
Pressure: 29.83"   Gusts: NA
Location:  47.2986°N, 122.616°W
Report Text: KTIW 250353Z AUTO 36007KT 6SM -RA BR OVC055 11/09 A2983 RMK AO2 SLP103 P0005 T01060089
Loading
Personal Weather Stations






























Interactive Weather Map
Tropical Storm Tracking
New forecast layout! Learn more

10-Day Weather Forecast

Advertisements
Track Severe Weather on mobile